Time;durP1;ratioP1;P1;durP2;ratioP2;P2;SDS_P1;SDS_P2;PMS_P1;PMS_P2;Temp;Humidity;BMP_temperature;BMP_pressure;BME280_temperature;BME280_humidity;BME280_pressure;Samples;Min_cycle;Max_cycle;Signal;HPM_P1;HPM_P2
2023/03/31 00:00:33;;;;;;;;;;;;;;;14.03;36.17;95069.03;5050610;28;19949;-64
2023/03/31 00:03:01;;;;;;;;;;;;;;;14.23;35.97;95058.38;5068660;28;20003;-64
2023/03/31 00:05:28;;;;;;;;;;;;;;;14.25;36.19;95060.72;5069378;28;19943;-65
2023/03/31 00:08:00;;;;;;;;;;;;;;;14.39;35.54;95071.47;5068528;28;19983;-63
2023/03/31 00:10:27;;;;;;;;;;;;;;;14.23;35.63;95068.13;5069065;28;20335;-65
2023/03/31 00:12:54;;;;;;;;;;;;;;;14.32;35.68;95071.00;5068575;28;20037;-65
2023/03/31 00:15:21;;;;;;;;;;;;;;;14.24;35.75;95064.44;5068810;28;20380;-66
2023/03/31 00:17:47;;;;;;;;;;;;;;;13.78;37.35;95060.47;5067969;28;19995;-64
2023/03/31 00:20:14;;;;;;;;;;;;;;;14.11;36.60;95059.75;5068539;28;19947;-64
2023/03/31 00:22:45;;;;;;;;;;;;;;;13.94;36.38;95062.75;5068598;28;19963;-64
2023/03/31 00:25:12;;;;;;;;;;;;;;;13.90;36.77;95064.34;5068894;28;20037;-64
2023/03/31 00:27:43;;;;;;;;;;;;;;;13.73;37.40;95063.13;5067849;28;19936;-65
2023/03/31 00:30:11;;;;;;;;;;;;;;;13.36;37.73;95068.03;5050426;28;20001;-63
2023/03/31 00:32:38;;;;;;;;;;;;;;;13.49;37.94;95064.81;5067971;28;19958;-64
2023/03/31 00:35:04;;;;;;;;;;;;;;;13.46;37.54;95065.34;5068238;28;19924;-64
2023/03/31 00:37:32;;;;;;;;;;;;;;;13.23;37.96;95062.25;5068187;28;19928;-67
2023/03/31 00:39:59;;;;;;;;;;;;;;;13.84;36.79;95052.28;5050875;28;19955;-64
2023/03/31 00:42:26;;;;;;;;;;;;;;;13.75;37.27;95050.47;5068338;28;19920;-64
2023/03/31 00:45:11;;;;;;;;;;;;;;;13.81;37.46;95049.41;5068176;28;20300;-65
2023/03/31 00:47:39;;;;;;;;;;;;;;;13.55;38.13;95048.72;5068108;28;19924;-64
2023/03/31 00:50:13;;;;;;;;;;;;;;;13.40;38.48;95053.25;5068815;28;19920;-64
2023/03/31 00:52:40;;;;;;;;;;;;;;;13.50;38.06;95043.50;5067977;28;20387;-65
2023/03/31 00:55:09;;;;;;;;;;;;;;;13.67;37.36;95037.88;5050758;28;20371;-65
2023/03/31 00:57:40;;;;;;;;;;;;;;;13.87;37.41;95035.13;5067449;28;19940;-65
2023/03/31 01:00:14;;;;;;;;;;;;;;;13.90;37.14;95031.97;5050538;28;19999;-65
2023/03/31 01:02:59;;;;;;;;;;;;;;;13.57;37.81;95022.13;5054279;28;19994;-63
2023/03/31 01:05:33;;;;;;;;;;;;;;;13.46;38.27;95037.19;5068192;28;19965;-64
2023/03/31 01:08:01;;;;;;;;;;;;;;;13.13;38.73;95028.09;5067469;28;19921;-63
2023/03/31 01:10:28;;;;;;;;;;;;;;;12.95;38.54;95031.25;5068081;28;20039;-67
2023/03/31 01:12:56;;;;;;;;;;;;;;;12.58;39.48;95028.16;5052577;28;21243;-63
2023/03/31 01:15:22;;;;;;;;;;;;;;;12.79;39.10;95037.56;5071613;28;20068;-65
2023/03/31 01:17:51;;;;;;;;;;;;;;;13.34;38.31;95022.75;5071671;28;19932;-64
2023/03/31 01:20:25;;;;;;;;;;;;;;;13.49;37.97;95035.84;5071750;28;20387;-64
2023/03/31 01:23:01;;;;;;;;;;;;;;;13.77;37.52;95028.09;5053266;28;19947;-64
2023/03/31 01:25:49;;;;;;;;;;;;;;;13.71;37.85;95029.16;5071350;28;19947;-64
2023/03/31 01:28:30;;;;;;;;;;;;;;;13.69;38.41;95030.47;5071094;28;19932;-63
2023/03/31 01:31:36;;;;;;;;;;;;;;;13.87;38.38;95035.13;5070953;28;20023;-64
2023/03/31 01:34:14;;;;;;;;;;;;;;;13.84;38.70;95039.13;4989747;28;19921;-64
2023/03/31 01:36:54;;;;;;;;;;;;;;;13.84;38.98;95030.41;4992477;28;19931;-64
2023/03/31 01:39:40;;;;;;;;;;;;;;;13.94;39.04;95044.31;5049392;28;19981;-64
2023/03/31 01:42:11;;;;;;;;;;;;;;;14.04;38.65;95044.28;5033537;28;19935;-65
2023/03/31 01:44:41;;;;;;;;;;;;;;;13.92;38.74;95045.66;5067231;28;20007;-65
2023/03/31 01:47:13;;;;;;;;;;;;;;;13.78;39.10;95055.19;5071389;28;20011;-64
2023/03/31 01:49:46;;;;;;;;;;;;;;;14.24;38.07;95048.63;5071691;28;20021;-66
2023/03/31 01:52:31;;;;;;;;;;;;;;;14.35;38.50;95065.19;5071008;28;20574;-66
2023/03/31 01:55:03;;;;;;;;;;;;;;;14.29;38.15;95056.50;5059927;28;20023;-65
2023/03/31 01:57:29;;;;;;;;;;;;;;;14.14;37.79;95064.50;5052758;28;20022;-65
2023/03/31 01:59:56;;;;;;;;;;;;;;;13.95;38.22;95066.19;5071400;28;19946;-63
2023/03/31 02:02:26;;;;;;;;;;;;;;;13.87;38.50;95064.91;5070312;28;20074;-64
2023/03/31 02:04:59;;;;;;;;;;;;;;;13.78;38.39;95065.72;5071456;28;19920;-64
2023/03/31 02:07:30;;;;;;;;;;;;;;;13.67;39.05;95065.00;5052765;28;19928;-66
2023/03/31 02:09:59;;;;;;;;;;;;;;;13.79;38.22;95067.31;5071114;28;20427;-65
2023/03/31 02:12:27;;;;;;;;;;;;;;;13.88;38.10;95060.44;5052684;28;19933;-65
2023/03/31 02:14:55;;;;;;;;;;;;;;;14.00;37.81;95068.78;5052979;28;19925;-64
2023/03/31 02:17:29;;;;;;;;;;;;;;;13.72;38.16;95072.09;5052367;28;19924;-64
2023/03/31 02:19:58;;;;;;;;;;;;;;;13.30;38.48;95079.63;5070354;28;19932;-65
2023/03/31 02:22:28;;;;;;;;;;;;;;;13.84;38.40;95080.47;5070377;28;19999;-63
2023/03/31 02:24:55;;;;;;;;;;;;;;;13.81;37.77;95087.03;5070119;28;19920;-64
2023/03/31 02:27:26;;;;;;;;;;;;;;;13.70;39.74;95095.28;5070037;28;19928;-65
2023/03/31 02:29:54;;;;;;;;;;;;;;;13.39;39.35;95078.81;5051795;28;19955;-65
2023/03/31 02:32:30;;;;;;;;;;;;;;;13.72;40.27;95093.16;5052223;28;19991;-65
2023/03/31 02:34:58;;;;;;;;;;;;;;;13.94;39.72;95102.28;5052181;28;19924;-64
2023/03/31 02:37:26;;;;;;;;;;;;;;;14.04;40.41;95101.44;5070088;28;19935;-65
2023/03/31 02:39:54;;;;;;;;;;;;;;;14.10;39.98;95106.41;5070179;28;20009;-65
2023/03/31 02:42:21;;;;;;;;;;;;;;;14.14;41.00;95111.94;5051852;28;19979;-64
2023/03/31 02:44:50;;;;;;;;;;;;;;;13.96;41.06;95109.91;5051993;28;19924;-65
2023/03/31 02:47:20;;;;;;;;;;;;;;;13.99;42.44;95114.66;5051931;28;20006;-66
2023/03/31 02:49:53;;;;;;;;;;;;;;;13.97;42.51;95111.50;5051902;28;19924;-65
2023/03/31 02:52:23;;;;;;;;;;;;;;;13.76;42.95;95109.97;5069171;28;19924;-65
2023/03/31 02:55:14;;;;;;;;;;;;;;;13.68;44.44;95103.44;5051936;28;19924;-65
2023/03/31 02:57:57;;;;;;;;;;;;;;;13.61;44.46;95086.34;5051353;28;20489;-65
2023/03/31 03:00:33;;;;;;;;;;;;;;;13.80;43.68;95089.97;5052107;28;19936;-65
2023/03/31 03:03:13;;;;;;;;;;;;;;;14.00;42.05;95081.97;5051827;28;19946;-65
2023/03/31 03:05:44;;;;;;;;;;;;;;;14.21;42.23;95070.25;5046315;28;19921;-64
2023/03/31 03:08:54;;;;;;;;;;;;;;;14.13;43.40;95060.28;5030111;28;20011;-64
2023/03/31 03:11:41;;;;;;;;;;;;;;;14.03;43.30;95055.09;5039580;28;19931;-63
2023/03/31 03:14:26;;;;;;;;;;;;;;;14.14;44.30;95054.72;5051448;28;19967;-63
2023/03/31 03:17:26;;;;;;;;;;;;;;;14.18;43.15;95057.59;5063128;28;19932;-63
2023/03/31 03:19:53;;;;;;;;;;;;;;;14.11;44.19;95044.75;5015880;28;19924;-64
2023/03/31 03:22:20;;;;;;;;;;;;;;;14.10;45.93;95039.75;5067874;28;19924;-63
2023/03/31 03:24:48;;;;;;;;;;;;;;;14.18;45.53;95036.53;5070025;28;20439;-64
2023/03/31 03:27:14;;;;;;;;;;;;;;;14.09;45.05;95035.53;5068925;28;20565;-64
2023/03/31 03:29:42;;;;;;;;;;;;;;;14.09;45.36;95035.53;5069275;28;19928;-64
2023/03/31 03:32:09;;;;;;;;;;;;;;;14.01;46.75;95044.78;5068774;28;19974;-65
2023/03/31 03:34:36;;;;;;;;;;;;;;;14.09;46.62;95038.16;5050703;28;19951;-65
2023/03/31 03:37:04;;;;;;;;;;;;;;;14.03;46.07;95049.81;5055724;28;20501;-64
2023/03/31 03:39:31;;;;;;;;;;;;;;;14.17;45.53;95038.41;5068734;28;20372;-65
2023/03/31 03:41:57;;;;;;;;;;;;;;;14.10;46.19;95026.59;5068817;28;20017;-65
2023/03/31 03:44:24;;;;;;;;;;;;;;;14.03;47.11;95031.38;5068910;28;19964;-64
2023/03/31 03:46:51;;;;;;;;;;;;;;;13.97;46.94;95027.19;5068584;28;19931;-65
2023/03/31 03:49:17;;;;;;;;;;;;;;;13.94;46.99;95022.47;5068981;28;20000;-65
2023/03/31 03:51:44;;;;;;;;;;;;;;;14.02;46.59;95021.88;5068916;28;20023;-65
2023/03/31 03:54:11;;;;;;;;;;;;;;;14.09;46.69;95027.63;5068912;28;19930;-65
2023/03/31 03:56:37;;;;;;;;;;;;;;;13.86;47.60;95021.19;5068329;28;20022;-66
2023/03/31 03:59:04;;;;;;;;;;;;;;;13.81;46.47;95015.16;5069207;28;19965;-66
2023/03/31 04:01:31;;;;;;;;;;;;;;;13.84;46.12;95025.16;5060699;28;20545;-65
2023/03/31 04:03:57;;;;;;;;;;;;;;;13.91;45.41;95028.25;5051307;28;20020;-65
2023/03/31 04:06:24;;;;;;;;;;;;;;;13.83;45.79;95028.84;5055673;28;19928;-64
2023/03/31 04:08:51;;;;;;;;;;;;;;;13.78;45.50;95031.50;5058963;28;19966;-64
2023/03/31 04:11:18;;;;;;;;;;;;;;;13.97;45.35;95032.47;5066918;28;19959;-66
2023/03/31 04:13:45;;;;;;;;;;;;;;;13.97;44.35;95037.72;5063984;28;19939;-66
2023/03/31 04:16:12;;;;;;;;;;;;;;;14.20;44.53;95037.03;5067335;28;19928;-65
2023/03/31 04:18:41;;;;;;;;;;;;;;;14.31;44.28;95046.50;5067572;28;20371;-65
2023/03/31 04:21:11;;;;;;;;;;;;;;;14.35;44.27;95044.88;5067670;28;19945;-63
2023/03/31 04:23:45;;;;;;;;;;;;;;;14.45;44.49;95044.78;5067212;28;19941;-64
2023/03/31 04:26:12;;;;;;;;;;;;;;;14.41;44.95;95043.78;5067516;28;19948;-65
2023/03/31 04:28:41;;;;;;;;;;;;;;;14.33;44.81;95039.09;5068531;28;19969;-66
2023/03/31 04:31:14;;;;;;;;;;;;;;;14.34;44.21;95037.25;5067314;28;20380;-68
2023/03/31 04:33:44;;;;;;;;;;;;;;;14.47;44.48;95037.41;5068375;28;19920;-66
2023/03/31 04:36:17;;;;;;;;;;;;;;;14.32;44.91;95040.16;5068112;28;20006;-67
2023/03/31 04:38:45;;;;;;;;;;;;;;;14.16;45.33;95041.28;5067982;28;19921;-64
2023/03/31 04:41:12;;;;;;;;;;;;;;;14.36;45.35;95035.13;5067426;28;19924;-67
2023/03/31 04:43:39;;;;;;;;;;;;;;;14.41;45.29;95027.97;5068017;28;20015;-64
2023/03/31 04:46:06;;;;;;;;;;;;;;;14.06;47.32;95028.19;5068332;28;19955;-64
2023/03/31 04:48:33;;;;;;;;;;;;;;;14.35;46.03;95023.78;5072986;28;19935;-65
2023/03/31 04:51:00;;;;;;;;;;;;;;;14.56;44.82;95017.28;5072146;28;19926;-67
2023/03/31 04:53:26;;;;;;;;;;;;;;;14.72;45.07;95020.59;5071255;28;20375;-63
2023/03/31 04:55:53;;;;;;;;;;;;;;;14.56;44.90;95025.19;5070776;28;19955;-65
2023/03/31 04:58:20;;;;;;;;;;;;;;;14.62;44.61;95029.38;5071131;28;19920;-65
2023/03/31 05:00:48;;;;;;;;;;;;;;;14.58;45.30;95015.16;5070732;28;20019;-66
2023/03/31 05:03:14;;;;;;;;;;;;;;;14.78;45.03;95014.97;5071014;28;19926;-65
2023/03/31 05:05:41;;;;;;;;;;;;;;;14.70;45.86;95020.88;5073661;28;19943;-64
2023/03/31 05:08:08;;;;;;;;;;;;;;;14.85;45.56;95020.72;5072066;28;20460;-64
2023/03/31 05:10:35;;;;;;;;;;;;;;;14.89;45.92;95024.38;5072673;28;20405;-64
2023/03/31 05:13:01;;;;;;;;;;;;;;;14.93;45.45;95014.84;5072499;28;19987;-64
2023/03/31 05:15:28;;;;;;;;;;;;;;;14.91;45.59;95016.97;5072540;28;19925;-66
2023/03/31 05:17:56;;;;;;;;;;;;;;;14.98;44.70;95006.09;5054682;28;20027;-67
2023/03/31 05:20:23;;;;;;;;;;;;;;;15.02;44.42;94999.97;5072282;28;20009;-65
2023/03/31 05:22:52;;;;;;;;;;;;;;;14.96;44.56;94987.88;5054591;28;20327;-64
2023/03/31 05:25:18;;;;;;;;;;;;;;;14.99;44.84;94992.63;5072779;28;19956;-65
2023/03/31 05:27:49;;;;;;;;;;;;;;;15.05;44.98;94990.72;5071421;28;19944;-66
2023/03/31 05:30:16;;;;;;;;;;;;;;;15.27;44.97;94983.84;5072467;28;20023;-65
2023/03/31 05:32:43;;;;;;;;;;;;;;;15.17;45.59;94986.63;5059470;28;19964;-65
2023/03/31 05:35:10;;;;;;;;;;;;;;;14.91;45.16;94997.72;5072968;28;19928;-64
2023/03/31 05:37:37;;;;;;;;;;;;;;;15.05;45.04;94996.00;5071698;28;20001;-65
2023/03/31 05:40:04;;;;;;;;;;;;;;;15.32;44.43;94979.59;5072049;28;19967;-65
2023/03/31 05:42:31;;;;;;;;;;;;;;;15.24;45.21;94973.88;5069190;28;20448;-66
2023/03/31 05:44:58;;;;;;;;;;;;;;;15.35;44.95;94984.28;5069437;28;20330;-66
2023/03/31 05:47:25;;;;;;;;;;;;;;;15.22;45.04;94986.56;5069318;28;19931;-65
2023/03/31 05:49:52;;;;;;;;;;;;;;;15.38;44.74;94978.47;5069095;28;20054;-66
2023/03/31 05:52:19;;;;;;;;;;;;;;;15.54;44.42;94977.22;5070915;28;20024;-64
2023/03/31 05:54:46;;;;;;;;;;;;;;;15.68;43.28;94978.88;5072528;28;19971;-66
2023/03/31 05:57:12;;;;;;;;;;;;;;;15.67;43.30;94987.09;5071398;28;19963;-67
2023/03/31 05:59:41;;;;;;;;;;;;;;;15.60;43.25;94998.00;5070827;28;19978;-64
2023/03/31 06:02:11;;;;;;;;;;;;;;;15.82;42.44;94990.31;5072126;28;19920;-66
2023/03/31 06:04:38;;;;;;;;;;;;;;;15.72;43.28;94981.75;5071989;28;19963;-65
2023/03/31 06:07:05;;;;;;;;;;;;;;;15.83;43.28;95001.69;5071749;28;19927;-64
2023/03/31 06:09:31;;;;;;;;;;;;;;;15.85;42.96;94996.91;5072039;28;19980;-65
2023/03/31 06:11:58;;;;;;;;;;;;;;;15.99;42.59;94995.09;5072131;28;19933;-63
2023/03/31 06:14:26;;;;;;;;;;;;;;;16.00;42.33;95002.75;5072040;28;20390;-64
2023/03/31 06:16:53;;;;;;;;;;;;;;;15.89;42.60;94989.97;5071050;28;19924;-65
2023/03/31 06:19:24;;;;;;;;;;;;;;;16.09;42.36;94987.81;5072000;28;19960;-65
2023/03/31 06:21:51;;;;;;;;;;;;;;;16.12;42.20;94984.59;5071128;28;19924;-66
2023/03/31 06:24:17;;;;;;;;;;;;;;;16.14;42.10;94981.69;5071795;28;19924;-65
2023/03/31 06:26:44;;;;;;;;;;;;;;;16.30;42.07;94979.56;5070924;28;19928;-66
2023/03/31 06:29:11;;;;;;;;;;;;;;;16.13;42.41;94982.72;5071802;28;19962;-65
2023/03/31 06:31:37;;;;;;;;;;;;;;;16.01;42.63;94992.97;5071444;28;19962;-67
2023/03/31 06:34:05;;;;;;;;;;;;;;;16.35;42.81;94990.09;5072032;28;19925;-65
2023/03/31 06:36:32;;;;;;;;;;;;;;;16.46;42.04;94984.31;5070784;28;20410;-66
2023/03/31 06:38:58;;;;;;;;;;;;;;;16.35;41.51;94979.50;5071683;28;19924;-64
2023/03/31 06:41:25;;;;;;;;;;;;;;;16.40;41.87;94985.50;5070775;28;19920;-65
2023/03/31 06:43:52;;;;;;;;;;;;;;;16.43;41.40;94984.13;5071348;28;19964;-64
2023/03/31 06:46:18;;;;;;;;;;;;;;;16.22;41.35;94991.59;5052361;28;19983;-66
2023/03/31 06:48:45;;;;;;;;;;;;;;;16.69;40.90;94983.47;5071540;28;20359;-65
2023/03/31 06:51:12;;;;;;;;;;;;;;;16.41;41.53;94999.50;5070881;28;20389;-65
2023/03/31 06:53:39;;;;;;;;;;;;;;;16.72;40.81;94993.47;5071338;28;19925;-67
2023/03/31 06:56:06;;;;;;;;;;;;;;;16.88;40.17;94991.31;5069974;28;20020;-64
2023/03/31 06:58:33;;;;;;;;;;;;;;;17.07;40.07;94984.88;5071172;28;20379;-67
2023/03/31 07:01:04;;;;;;;;;;;;;;;17.16;40.20;94982.34;5070654;28;19975;-65
2023/03/31 07:03:31;;;;;;;;;;;;;;;17.21;39.90;94975.06;5071017;28;19920;-65
2023/03/31 07:05:58;;;;;;;;;;;;;;;16.81;40.43;94975.03;5070167;28;19946;-63
2023/03/31 07:08:25;;;;;;;;;;;;;;;16.95;39.81;94966.03;5070617;28;19971;-66
2023/03/31 07:10:56;;;;;;;;;;;;;;;17.20;40.06;94957.63;5052206;28;19924;-65
2023/03/31 07:13:24;;;;;;;;;;;;;;;16.90;40.04;94931.72;5071036;28;20271;-65
2023/03/31 07:15:51;;;;;;;;;;;;;;;17.40;39.63;94932.59;5070455;28;19931;-64
2023/03/31 07:18:18;;;;;;;;;;;;;;;17.54;39.82;94924.66;5070683;28;19920;-65
2023/03/31 07:20:49;;;;;;;;;;;;;;;17.10;39.37;94920.75;5070825;28;19943;-65
2023/03/31 07:23:16;;;;;;;;;;;;;;;17.58;38.89;94909.72;5070917;28;19920;-65
2023/03/31 07:25:44;;;;;;;;;;;;;;;17.18;38.96;94906.84;5070431;28;19921;-66
2023/03/31 07:28:11;;;;;;;;;;;;;;;17.33;39.01;94907.59;5070002;28;20015;-65
2023/03/31 07:30:38;;;;;;;;;;;;;;;17.07;38.54;94910.75;5070576;28;19925;-66
2023/03/31 07:33:06;;;;;;;;;;;;;;;17.83;37.69;94911.81;5069653;28;19947;-65
2023/03/31 07:35:33;;;;;;;;;;;;;;;17.65;37.42;94915.41;5070511;28;19926;-64
2023/03/31 07:37:59;;;;;;;;;;;;;;;18.09;36.96;94920.75;5069753;28;20371;-65
2023/03/31 07:40:27;;;;;;;;;;;;;;;17.70;37.49;94912.66;5070800;28;19962;-64
2023/03/31 07:42:54;;;;;;;;;;;;;;;17.84;36.68;94914.19;5069855;28;19931;-65
2023/03/31 07:45:21;;;;;;;;;;;;;;;17.61;36.94;94904.63;5070927;28;19936;-65
2023/03/31 07:47:49;;;;;;;;;;;;;;;17.35;36.46;94903.56;5069467;28;19928;-64
2023/03/31 07:50:17;;;;;;;;;;;;;;;17.07;36.12;94905.47;5052241;28;20035;-65
2023/03/31 07:52:46;;;;;;;;;;;;;;;17.52;35.19;94902.97;5051596;28;19932;-67
2023/03/31 07:55:13;;;;;;;;;;;;;;;17.72;34.47;94894.56;5070276;28;19964;-64
2023/03/31 07:57:40;;;;;;;;;;;;;;;17.62;33.78;94900.09;5069854;28;19928;-62
2023/03/31 08:00:11;;;;;;;;;;;;;;;18.00;34.07;94907.44;5070566;28;19920;-63
2023/03/31 08:02:38;;;;;;;;;;;;;;;18.17;34.08;94901.47;5069741;28;19952;-66
2023/03/31 08:05:06;;;;;;;;;;;;;;;18.54;33.58;94890.47;5069915;28;20398;-64
2023/03/31 08:07:33;;;;;;;;;;;;;;;19.04;33.22;94883.81;5069351;28;20426;-64
2023/03/31 08:10:02;;;;;;;;;;;;;;;18.44;32.95;94892.63;5070262;28;19941;-66
2023/03/31 08:12:28;;;;;;;;;;;;;;;18.70;32.40;94886.34;5067002;28;19939;-65
2023/03/31 08:14:56;;;;;;;;;;;;;;;18.58;32.46;94877.38;5069766;28;19946;-67
2023/03/31 08:17:23;;;;;;;;;;;;;;;18.87;31.92;94865.16;5069176;28;19931;-64
2023/03/31 08:19:50;;;;;;;;;;;;;;;18.59;31.87;94871.78;5069673;28;20386;-64
2023/03/31 08:22:17;;;;;;;;;;;;;;;18.09;32.41;94873.03;5069089;28;20031;-66
2023/03/31 08:24:44;;;;;;;;;;;;;;;18.37;32.15;94869.16;5070088;28;19921;-65
2023/03/31 08:27:10;;;;;;;;;;;;;;;17.83;33.21;94864.09;5069418;28;20007;-66
2023/03/31 08:29:38;;;;;;;;;;;;;;;18.30;32.51;94870.66;5069944;28;20035;-66
2023/03/31 08:32:05;;;;;;;;;;;;;;;17.84;33.11;94865.69;5069547;28;19924;-64
2023/03/31 08:34:33;;;;;;;;;;;;;;;18.19;32.55;94864.84;5070224;28;19930;-67
2023/03/31 08:37:00;;;;;;;;;;;;;;;18.22;32.44;94874.81;5069312;28;19921;-66
2023/03/31 08:39:26;;;;;;;;;;;;;;;17.99;32.37;94860.03;5069174;28;19928;-65
2023/03/31 08:41:58;;;;;;;;;;;;;;;18.02;32.35;94857.56;5069362;28;20366;-67
2023/03/31 08:44:32;;;;;;;;;;;;;;;17.31;32.83;94865.53;5069508;28;20003;-67
2023/03/31 08:47:01;;;;;;;;;;;;;;;17.38;32.96;94842.06;5068971;28;20015;-64
2023/03/31 08:49:31;;;;;;;;;;;;;;;17.90;32.60;94869.78;5069724;28;19920;-64
2023/03/31 08:52:00;;;;;;;;;;;;;;;17.74;32.64;94863.25;5069336;28;19981;-65
2023/03/31 08:54:37;;;;;;;;;;;;;;;17.76;32.85;94863.75;5069007;28;20380;-66
2023/03/31 08:57:10;;;;;;;;;;;;;;;17.27;33.26;94850.50;5068747;28;20019;-64
2023/03/31 08:59:37;;;;;;;;;;;;;;;17.99;32.35;94849.41;5057076;28;20402;-67
2023/03/31 09:02:23;;;;;;;;;;;;;;;17.02;33.19;94852.59;5050668;28;19955;-65
2023/03/31 09:05:05;;;;;;;;;;;;;;;17.46;33.31;94838.72;5069112;28;19994;-68
2023/03/31 09:07:33;;;;;;;;;;;;;;;17.80;32.68;94843.50;5068363;28;20032;-64
2023/03/31 09:10:00;;;;;;;;;;;;;;;17.50;32.73;94849.50;5069141;28;19951;-64
2023/03/31 09:12:26;;;;;;;;;;;;;;;17.33;32.58;94844.03;5068794;28;19966;-66
2023/03/31 09:15:03;;;;;;;;;;;;;;;17.68;32.43;94849.34;5069328;28;20042;-67
2023/03/31 09:17:39;;;;;;;;;;;;;;;17.85;32.08;94835.41;5068979;28;19945;-65
2023/03/31 09:20:12;;;;;;;;;;;;;;;18.08;31.71;94831.69;5069108;28;20431;-65
2023/03/31 09:22:42;;;;;;;;;;;;;;;18.30;31.54;94836.97;5068887;28;19945;-65
2023/03/31 09:25:17;;;;;;;;;;;;;;;18.40;31.12;94831.38;5068922;28;19963;-66
2023/03/31 09:27:46;;;;;;;;;;;;;;;19.40;30.15;94811.88;5068356;28;19920;-66
2023/03/31 09:30:19;;;;;;;;;;;;;;;19.61;29.68;94827.97;5069094;28;19925;-64
2023/03/31 09:32:48;;;;;;;;;;;;;;;19.37;29.97;94831.09;5050856;28;19969;-64
2023/03/31 09:35:16;;;;;;;;;;;;;;;19.53;29.89;94821.56;5072229;28;19945;-66
2023/03/31 09:37:43;;;;;;;;;;;;;;;19.26;30.18;94826.34;5072367;28;19986;-65
2023/03/31 09:40:14;;;;;;;;;;;;;;;20.69;28.64;94818.53;5072502;28;20064;-64
2023/03/31 09:42:41;;;;;;;;;;;;;;;20.52;28.28;94805.31;5071922;28;20450;-65
2023/03/31 09:45:15;;;;;;;;;;;;;;;19.23;29.62;94815.25;5072651;28;19966;-69
2023/03/31 09:47:45;;;;;;;;;;;;;;;18.93;29.84;94797.56;5072154;28;19928;-66
2023/03/31 09:50:12;;;;;;;;;;;;;;;19.62;29.30;94809.06;5072659;28;20364;-66
2023/03/31 09:52:40;;;;;;;;;;;;;;;20.54;28.45;94803.09;5071904;28;20464;-66
2023/03/31 09:55:19;;;;;;;;;;;;;;;21.30;27.78;94797.69;5072621;28;19924;-66
2023/03/31 09:58:05;;;;;;;;;;;;;;;21.50;27.80;94789.69;5060166;28;20011;-65
2023/03/31 10:00:32;;;;;;;;;;;;;;;20.60;28.13;94791.16;5072655;28;20038;-65
2023/03/31 10:03:06;;;;;;;;;;;;;;;21.87;27.43;94785.34;5071949;28;19968;-65
2023/03/31 10:05:35;;;;;;;;;;;;;;;21.05;27.55;94776.25;5072560;28;19924;-65
2023/03/31 10:08:28;;;;;;;;;;;;;;;20.97;27.42;94785.03;5058909;28;19981;-65
2023/03/31 10:10:55;;;;;;;;;;;;;;;20.79;27.47;94772.91;5068388;28;19981;-65
2023/03/31 10:13:28;;;;;;;;;;;;;;;20.93;28.04;94768.13;5072292;28;19977;-66
2023/03/31 10:16:02;;;;;;;;;;;;;;;22.29;27.46;94770.75;5071434;28;20388;-65
2023/03/31 10:18:33;;;;;;;;;;;;;;;21.05;27.18;94770.91;5071668;28;19928;-69
2023/03/31 10:21:01;;;;;;;;;;;;;;;20.58;27.71;94769.44;5071486;28;19981;-65
2023/03/31 10:23:29;;;;;;;;;;;;;;;20.67;28.29;94770.16;5072238;28;19945;-65
2023/03/31 10:25:56;;;;;;;;;;;;;;;20.89;27.60;94767.19;5071288;28;19924;-67
2023/03/31 10:28:22;;;;;;;;;;;;;;;20.29;27.96;94761.38;5071605;28;19998;-67
2023/03/31 10:30:54;;;;;;;;;;;;;;;20.58;28.33;94761.44;5071221;28;20429;-65
2023/03/31 10:33:24;;;;;;;;;;;;;;;20.77;27.79;94756.47;5053447;28;20280;-65
2023/03/31 10:35:56;;;;;;;;;;;;;;;21.17;27.24;94745.44;5053156;28;20346;-64
2023/03/31 10:38:30;;;;;;;;;;;;;;;21.44;27.00;94755.56;5071489;28;19978;-66
2023/03/31 10:40:58;;;;;;;;;;;;;;;21.26;27.17;94754.91;5070747;28;19924;-64
2023/03/31 10:43:32;;;;;;;;;;;;;;;20.29;28.11;94744.66;5071280;28;20359;-65
2023/03/31 10:45:59;;;;;;;;;;;;;;;20.63;27.97;94741.81;5070853;28;19956;-65
2023/03/31 10:48:27;;;;;;;;;;;;;;;20.34;27.82;94745.25;5071386;28;20301;-66
2023/03/31 10:50:58;;;;;;;;;;;;;;;20.54;27.94;94744.53;5070324;28;20400;-65
2023/03/31 10:53:27;;;;;;;;;;;;;;;20.18;28.64;94742.34;5071234;28;20388;-66
2023/03/31 10:56:12;;;;;;;;;;;;;;;20.93;28.55;94736.16;5070114;28;19935;-65
2023/03/31 10:58:39;;;;;;;;;;;;;;;21.35;28.99;94741.53;5070849;28;19958;-66
2023/03/31 11:01:21;;;;;;;;;;;;;;;21.27;28.25;94740.50;5070715;28;20012;-65
2023/03/31 11:03:48;;;;;;;;;;;;;;;21.35;28.47;94723.63;5071052;28;19938;-67
2023/03/31 11:06:35;;;;;;;;;;;;;;;21.71;28.27;94723.81;5070691;28;20042;-66
2023/03/31 11:09:02;;;;;;;;;;;;;;;21.76;27.49;94723.59;5070271;28;19991;-64
2023/03/31 11:11:35;;;;;;;;;;;;;;;21.64;27.83;94702.19;5070403;28;19939;-64
2023/03/31 11:14:21;;;;;;;;;;;;;;;21.88;27.89;94717.53;5070299;28;20024;-67
2023/03/31 11:16:48;;;;;;;;;;;;;;;21.60;27.46;94720.00;5070110;28;19924;-66
2023/03/31 11:19:23;;;;;;;;;;;;;;;21.61;27.42;94708.19;5070794;28;19941;-65
2023/03/31 11:21:50;;;;;;;;;;;;;;;21.17;27.69;94716.13;5069965;28;19930;-64
2023/03/31 11:24:16;;;;;;;;;;;;;;;21.29;27.92;94700.97;5071120;28;19930;-65
2023/03/31 11:26:49;;;;;;;;;;;;;;;22.08;27.16;94695.31;5070929;28;19988;-65
2023/03/31 11:29:16;;;;;;;;;;;;;;;22.00;27.96;94694.34;5071560;28;20419;-65
2023/03/31 11:31:42;;;;;;;;;;;;;;;21.86;28.11;94690.41;5069860;28;19974;-65
2023/03/31 11:34:21;;;;;;;;;;;;;;;22.15;27.14;94675.00;5070051;28;19945;-65
2023/03/31 11:37:07;;;;;;;;;;;;;;;21.97;27.47;94683.53;5069888;28;19954;-65
2023/03/31 11:39:39;;;;;;;;;;;;;;;21.96;27.12;94676.63;5069846;28;19953;-65
2023/03/31 11:42:19;;;;;;;;;;;;;;;21.87;27.01;94681.28;5069703;28;20418;-65
2023/03/31 11:44:51;;;;;;;;;;;;;;;21.68;27.27;94670.31;5070025;28;19924;-64
2023/03/31 11:47:20;;;;;;;;;;;;;;;22.33;27.30;94667.56;5070018;28;19924;-65
2023/03/31 11:49:52;;;;;;;;;;;;;;;21.90;27.41;94665.41;5069540;28;19920;-66
2023/03/31 11:52:48;;;;;;;;;;;;;;;21.84;27.58;94664.06;5069661;28;19935;-65
2023/03/31 11:55:20;;;;;;;;;;;;;;;22.36;26.92;94658.88;5052417;28;19948;-65
2023/03/31 11:57:57;;;;;;;;;;;;;;;22.70;26.41;94650.41;5068799;28;19974;-66
2023/03/31 12:00:47;;;;;;;;;;;;;;;22.36;26.76;94653.53;5069903;28;19971;-65
2023/03/31 12:03:22;;;;;;;;;;;;;;;21.98;27.63;94647.75;5022581;28;20390;-66
2023/03/31 12:05:57;;;;;;;;;;;;;;;22.81;27.12;94642.72;5069997;28;19924;-64
2023/03/31 12:08:43;;;;;;;;;;;;;;;22.35;26.31;94638.63;5052310;28;20017;-67
2023/03/31 12:11:13;;;;;;;;;;;;;;;22.97;26.23;94630.97;5069293;28;19920;-65
2023/03/31 12:13:59;;;;;;;;;;;;;;;22.68;26.16;94633.16;5069874;28;19978;-65
2023/03/31 12:16:36;;;;;;;;;;;;;;;23.08;26.09;94621.34;5069146;28;20256;-65
2023/03/31 12:19:10;;;;;;;;;;;;;;;23.16;25.96;94616.97;5066902;28;20006;-66
2023/03/31 12:21:38;;;;;;;;;;;;;;;23.43;25.21;94608.19;5058259;28;20439;-66
2023/03/31 12:24:05;;;;;;;;;;;;;;;23.97;25.51;94613.75;5065845;28;19959;-65
2023/03/31 12:26:44;;;;;;;;;;;;;;;23.38;25.75;94621.03;5060641;28;19924;-66
2023/03/31 12:29:23;;;;;;;;;;;;;;;22.91;26.07;94616.31;5066510;28;20375;-65
2023/03/31 12:31:52;;;;;;;;;;;;;;;23.25;26.35;94603.47;5065431;28;19921;-66
2023/03/31 12:34:20;;;;;;;;;;;;;;;23.12;26.51;94611.53;5061359;28;20604;-65
2023/03/31 12:36:55;;;;;;;;;;;;;;;23.14;25.94;94609.31;5066987;28;19956;-65
2023/03/31 12:39:31;;;;;;;;;;;;;;;23.20;26.17;94606.38;5055230;28;19927;-66
2023/03/31 12:42:16;;;;;;;;;;;;;;;23.45;25.89;94597.91;5060021;28;19920;-67
2023/03/31 12:45:01;;;;;;;;;;;;;;;23.63;25.04;94601.06;5067564;28;19951;-66
2023/03/31 12:47:34;;;;;;;;;;;;;;;23.76;24.42;94597.16;5064858;28;19928;-66
2023/03/31 12:50:01;;;;;;;;;;;;;;;24.62;23.92;94594.25;5066467;28;20678;-66
2023/03/31 12:52:31;;;;;;;;;;;;;;;25.21;24.27;94569.03;5066646;28;19939;-65
2023/03/31 12:55:16;;;;;;;;;;;;;;;25.95;23.42;94565.75;5057369;28;19921;-66
2023/03/31 12:57:43;;;;;;;;;;;;;;;24.77;22.95;94566.66;5058827;28;19920;-67
2023/03/31 13:00:26;;;;;;;;;;;;;;;24.65;23.84;94564.06;5062060;28;19962;-66
2023/03/31 13:03:13;;;;;;;;;;;;;;;25.24;23.69;94553.00;5067854;28;20018;-63
2023/03/31 13:05:43;;;;;;;;;;;;;;;25.46;22.82;94548.81;5062175;28;19920;-67